»·PEaware :: ASA1185 KPDX-KSJC

ASA1185 :: KPDX-KSJC

FLIGHT INFORMATION

Flight Status: Arrived
Operator:
Alaska Airlines
More flights by this operator :: More flights under this callsign
Pilot: Tyler C. (3191)
Aircraft: BOEING 737-800
(B738)
More flights by this aircraft type
Origin: KPDX Portland Intl
United States
Destination: KSJC Mineta San Jose Intl
United States
More flights between these airports :: More routes between these airports
Route: +MINNE5 HISKU Q5 HUPTU CHBLI BRIXX2
File this flight plan on PilotEdge
Remarks: NONE
Altitude:
(Current/Filed)
35,000ft
Speed:
(Current/Filed)
515kts
Departed: 21-Sep-18 10:02 AM
Arrived: 21-Sep-18 11:32 AM
Distance/Time
Traveled:
494nm/1:30
Distance/Time
To Go:
Arrived

Flight Plot

Page will automatically refresh every two minutes.

Flight plan parsing failed; only flown route is shown


Map Options




Map Legend


Flown Route
Filed Route
Departure Airport
Arrival Airport
Navaid (VOR, NDB)
Fix

Horizontal Profiles

Position Reports

Time Latitude Longitude Heading Altitude Ground
Speed
21-Sep-18 09:47 45.587528 -122.594306 52 36ft 0kts
21-Sep-18 09:48 45.587528 -122.594306 52 36ft 0kts
21-Sep-18 09:49 45.587528 -122.594306 52 36ft 0kts
21-Sep-18 09:50 45.587528 -122.594306 52 36ft 0kts
21-Sep-18 09:51 45.587528 -122.594306 52 36ft 0kts
21-Sep-18 09:52 45.587528 -122.594306 52 36ft 0kts
21-Sep-18 09:53 45.587528 -122.594306 52 36ft 0kts
21-Sep-18 09:54 45.587528 -122.594306 52 36ft 0kts
21-Sep-18 09:55 45.587528 -122.594306 52 36ft 0kts
21-Sep-18 09:56 45.587528 -122.594306 52 36ft 0kts
21-Sep-18 09:57 45.587528 -122.594306 52 37ft 0kts
21-Sep-18 09:58 45.587207 -122.594900 51 37ft 2kts
21-Sep-18 09:59 45.587165 -122.595617 119 37ft 1kts
21-Sep-18 10:00 45.587185 -122.595667 117 36ft 0kts
21-Sep-18 10:01 45.586516 -122.594125 130 36ft 18kts
21-Sep-18 10:02 45.582426 -122.585592 118 36ft 25kts
21-Sep-18 10:03 45.581296 -122.583521 189 36ft 11kts
21-Sep-18 10:04 45.584849 -122.595023 298 37ft 100kts
21-Sep-18 10:05 45.608455 -122.652859 303 1607ft 201kts
21-Sep-18 10:06 45.642262 -122.732554 299 3448ft 259kts
21-Sep-18 10:07 45.669584 -122.828421 267 6491ft 273kts
21-Sep-18 10:08 45.631102 -122.918040 208 9238ft 289kts
21-Sep-18 10:09 45.547663 -122.930720 181 11261ft 326kts
21-Sep-18 10:10 45.457062 -122.941244 183 14016ft 332kts
21-Sep-18 10:11 45.364607 -122.952063 185 16498ft 340kts
21-Sep-18 10:12 45.267523 -122.963386 186 18339ft 363kts
21-Sep-18 10:13 45.165006 -122.967307 179 20310ft 377kts
21-Sep-18 10:14 45.059134 -122.963310 180 22200ft 388kts
21-Sep-18 10:15 44.950064 -122.959543 180 23860ft 400kts
21-Sep-18 10:16 44.838261 -122.955696 180 25554ft 407kts
21-Sep-18 10:17 44.724301 -122.951816 180 27032ft 416kts
21-Sep-18 10:18 44.607726 -122.947866 180 28398ft 424kts
21-Sep-18 10:19 44.489315 -122.943452 178 29705ft 431kts
21-Sep-18 10:20 44.370477 -122.934613 178 31253ft 428kts
21-Sep-18 10:21 44.251995 -122.925762 179 32706ft 424kts
21-Sep-18 10:22 44.132618 -122.916980 179 33083ft 447kts
21-Sep-18 10:23 44.005511 -122.907665 179 33074ft 462kts
21-Sep-18 10:24 43.878880 -122.898395 179 33075ft 461kts
21-Sep-18 10:25 43.751396 -122.889120 179 33075ft 462kts
21-Sep-18 10:26 43.623391 -122.879843 179 33075ft 462kts
21-Sep-18 10:27 43.495143 -122.870582 179 33076ft 462kts
21-Sep-18 10:28 43.366959 -122.861359 179 33081ft 464kts
21-Sep-18 10:29 43.237364 -122.852071 179 33078ft 470kts
21-Sep-18 10:30 43.107468 -122.842778 179 33077ft 469kts
21-Sep-18 10:31 42.977541 -122.833524 179 33076ft 470kts
21-Sep-18 10:32 42.847593 -122.824302 179 33075ft 469kts
21-Sep-18 10:33 42.719110 -122.815214 179 33075ft 469kts
21-Sep-18 10:34 42.589192 -122.806058 179 33075ft 468kts
21-Sep-18 10:35 42.459412 -122.796944 179 33076ft 468kts
21-Sep-18 10:36 42.330128 -122.787899 179 33076ft 467kts
21-Sep-18 10:37 42.200806 -122.778883 179 33076ft 467kts
21-Sep-18 10:38 42.071519 -122.769905 179 33076ft 466kts
21-Sep-18 10:39 41.942592 -122.760979 179 33134ft 466kts
21-Sep-18 10:40 41.813279 -122.752065 179 33129ft 466kts
21-Sep-18 10:41 41.685378 -122.743274 179 33130ft 465kts
21-Sep-18 10:42 41.556781 -122.734473 178 33130ft 465kts
21-Sep-18 10:43 41.428756 -122.725741 178 33131ft 465kts
21-Sep-18 10:44 41.300208 -122.717010 178 33130ft 465kts
21-Sep-18 10:45 41.173840 -122.708457 178 33130ft 464kts
21-Sep-18 10:46 41.044933 -122.699763 178 33130ft 464kts
21-Sep-18 10:47 40.916478 -122.691134 178 33130ft 464kts
21-Sep-18 10:48 40.795034 -122.683007 178 33130ft 464kts
21-Sep-18 10:49 40.667641 -122.674515 178 33028ft 464kts
21-Sep-18 10:50 40.541005 -122.666108 178 33020ft 465kts
21-Sep-18 10:51 40.412405 -122.657594 178 33022ft 465kts
21-Sep-18 10:52 40.284369 -122.649149 178 33022ft 465kts
21-Sep-18 10:53 40.156753 -122.640763 178 33021ft 464kts
21-Sep-18 10:54 40.027734 -122.632317 178 33022ft 464kts
21-Sep-18 10:55 39.900174 -122.623995 178 33005ft 457kts
21-Sep-18 10:56 39.776699 -122.615966 178 33010ft 458kts
21-Sep-18 10:57 39.649539 -122.607751 178 33005ft 459kts
21-Sep-18 10:58 39.523158 -122.599576 178 33033ft 457kts
21-Sep-18 10:59 39.397154 -122.591482 178 33009ft 458kts
21-Sep-18 11:00 39.270317 -122.583365 178 33033ft 458kts
21-Sep-18 11:01 39.143864 -122.575304 178 33034ft 458kts
21-Sep-18 11:02 39.017659 -122.567290 178 33034ft 458kts
21-Sep-18 11:03 38.897498 -122.559689 178 33005ft 458kts
21-Sep-18 11:04 38.774641 -122.551946 178 33009ft 458kts
21-Sep-18 11:05 38.650223 -122.544136 178 33006ft 459kts
21-Sep-18 11:06 38.523988 -122.536945 179 32907ft 451kts
21-Sep-18 11:07 38.398826 -122.533052 179 29570ft 460kts
21-Sep-18 11:08 38.272443 -122.528837 179 26758ft 462kts
21-Sep-18 11:09 38.145449 -122.524575 179 23969ft 444kts
21-Sep-18 11:10 38.030989 -122.519858 177 21484ft 389kts
21-Sep-18 11:11 37.929885 -122.512188 177 19287ft 350kts
21-Sep-18 11:12 37.842520 -122.505656 177 17464ft 337kts
21-Sep-18 11:13 37.751283 -122.496559 165 15463ft 336kts
21-Sep-18 11:14 37.674278 -122.433782 141 13507ft 335kts
21-Sep-18 11:15 37.602943 -122.365408 156 11980ft 317kts
21-Sep-18 11:16 37.528376 -122.327021 158 11276ft 287kts
21-Sep-18 11:17 37.461932 -122.292129 158 10494ft 271kts
21-Sep-18 11:18 37.396055 -122.257506 158 9838ft 258kts
21-Sep-18 11:19 37.330134 -122.222901 159 8967ft 240kts
21-Sep-18 11:20 37.274797 -122.182655 135 8982ft 237kts
21-Sep-18 11:21 37.235644 -122.118115 109 8511ft 234kts
21-Sep-18 11:22 37.211763 -122.045496 112 7533ft 219kts
21-Sep-18 11:23 37.183086 -121.983030 126 6527ft 202kts
21-Sep-18 11:24 37.151007 -121.927836 126 6002ft 200kts
21-Sep-18 11:25 37.122188 -121.869008 104 6009ft 199kts
21-Sep-18 11:26 37.109453 -121.803569 103 5986ft 190kts
21-Sep-18 11:27 37.119691 -121.746157 27 5544ft 189kts
21-Sep-18 11:28 37.170945 -121.755550 341 5035ft 191kts
21-Sep-18 11:29 37.225118 -121.784550 333 3362ft 200kts
21-Sep-18 11:30 37.263938 -121.821980 318 2347ft 169kts
21-Sep-18 11:31 37.298749 -121.860036 319 1584ft 163kts
21-Sep-18 11:32 37.332453 -121.896715 318 690ft 161kts
21-Sep-18 11:33 37.363242 -121.930488 318 70ft 77kts
21-Sep-18 11:34 37.368432 -121.932476 49 70ft 14kts

Navigation Log

Ident Type
Flight plan parsing failed, navigation log unavailable